Time;durP1;ratioP1;P1;durP2;ratioP2;P2;SDS_P1;SDS_P2;PMS_P1;PMS_P2;Temp;Humidity;BMP_temperature;BMP_pressure;BME280_temperature;BME280_humidity;BME280_pressure;Samples;Min_cycle;Max_cycle;Signal;HPM_P1;HPM_P2
2021/10/28 00:15:28;;;;;;;11.90;8.07;;;;;;;12.85;68.38;100277.94;4994790;28;20054;-83
2021/10/28 00:18:11;;;;;;;14.52;9.07;;;;;;;12.84;67.92;100275.38;4994818;28;20062;-84
2021/10/28 00:20:38;;;;;;;13.50;8.77;;;;;;;12.83;67.97;100273.69;4994671;28;20499;-83
2021/10/28 00:23:09;;;;;;;10.05;8.48;;;;;;;12.80;68.11;100268.56;4994983;28;20297;-83
2021/10/28 00:25:38;;;;;;;12.32;8.90;;;;;;;12.79;68.27;100273.03;4994901;28;20058;-84
2021/10/28 00:28:06;;;;;;;16.65;9.18;;;;;;;12.78;68.09;100273.94;4994378;28;20096;-84
2021/10/28 00:30:34;;;;;;;13.30;9.13;;;;;;;12.76;68.18;100276.66;4994339;28;20494;-83
2021/10/28 00:33:00;;;;;;;12.48;9.32;;;;;;;12.76;68.35;100281.13;5009740;28;20108;-83
2021/10/28 00:35:27;;;;;;;14.05;9.60;;;;;;;12.76;68.31;100281.13;5009419;28;20046;-81
2021/10/28 00:37:55;;;;;;;12.65;9.27;;;;;;;12.76;67.95;100274.03;5009583;28;20072;-83
2021/10/28 00:40:22;;;;;;;14.68;9.77;;;;;;;12.74;68.38;100272.41;4992974;28;20054;-83
2021/10/28 00:42:48;;;;;;;12.90;9.93;;;;;;;12.73;68.20;100271.59;4994450;28;20761;-84
2021/10/28 00:45:15;;;;;;;13.55;9.80;;;;;;;12.71;68.34;100265.50;4993312;28;20053;-83
2021/10/28 00:47:42;;;;;;;15.05;10.52;;;;;;;12.70;68.39;100269.09;4994557;28;20054;-84
2021/10/28 00:50:09;;;;;;;11.75;8.73;;;;;;;12.70;68.12;100268.25;4994175;28;20046;-83
2021/10/28 00:52:36;;;;;;;13.27;9.75;;;;;;;12.69;68.30;100269.19;4994197;28;20472;-83
2021/10/28 00:55:04;;;;;;;17.23;10.25;;;;;;;12.67;68.38;100271.91;4992812;28;20108;-83
2021/10/28 00:57:33;;;;;;;11.48;9.55;;;;;;;12.66;68.47;100266.72;4994323;28;20496;-83
2021/10/28 01:00:01;;;;;;;13.15;9.85;;;;;;;12.66;68.06;100272.00;4994095;28;20050;-84
2021/10/28 01:02:27;;;;;;;12.60;8.95;;;;;;;12.62;68.17;100272.19;4994094;28;20496;-83
2021/10/28 01:04:56;;;;;;;12.95;10.13;;;;;;;12.60;68.27;100267.94;4992671;28;20077;-83
2021/10/28 01:07:23;;;;;;;10.73;9.02;;;;;;;12.59;68.28;100272.38;5009052;28;20061;-83
2021/10/28 01:09:49;;;;;;;14.50;9.52;;;;;;;12.58;68.22;100270.66;4993608;28;20463;-84
2021/10/28 01:12:16;;;;;;;13.63;9.57;;;;;;;12.58;68.30;100277.72;4993761;28;20054;-83
2021/10/28 01:14:45;;;;;;;15.40;9.75;;;;;;;12.57;68.35;100273.41;4993613;28;20062;-83
2021/10/28 01:17:12;;;;;;;11.43;8.20;;;;;;;12.55;68.41;100272.63;4992363;28;20058;-83
2021/10/28 01:19:41;;;;;;;16.42;9.82;;;;;;;12.54;68.56;100271.78;5008298;28;20061;-83
2021/10/28 01:22:07;;;;;;;13.70;9.48;;;;;;;12.53;68.28;100262.16;4993559;28;20058;-83
2021/10/28 01:24:34;;;;;;;13.38;8.77;;;;;;;12.52;68.33;100271.00;4993540;28;20061;-83
2021/10/28 01:27:08;;;;;;;14.32;8.52;;;;;;;12.47;68.58;100276.56;4994747;28;20058;-83
2021/10/28 01:29:36;;;;;;;12.63;8.63;;;;;;;12.48;68.47;100272.97;5007324;28;20053;-83
2021/10/28 01:32:04;;;;;;;12.45;8.25;;;;;;;12.47;68.33;100271.28;5007722;28;20058;-83
2021/10/28 01:34:31;;;;;;;12.23;9.13;;;;;;;12.46;68.48;100274.00;4992460;28;20054;-83
2021/10/28 01:36:59;;;;;;;14.00;7.53;;;;;;;12.46;68.41;100276.66;4991346;28;20050;-83
2021/10/28 01:39:26;;;;;;;13.80;7.90;;;;;;;12.45;68.29;100270.50;4991135;28;20061;-83
2021/10/28 01:41:54;;;;;;;9.90;7.38;;;;;;;12.44;68.29;100263.53;4992605;28;20050;-84
2021/10/28 01:44:21;;;;;;;13.35;7.47;;;;;;;12.43;68.34;100256.56;5007522;28;20133;-83
2021/10/28 01:46:48;;;;;;;14.20;7.10;;;;;;;12.44;68.24;100263.53;4991143;28;20126;-83
2021/10/28 01:49:23;;;;;;;10.60;7.40;;;;;;;12.41;68.69;100260.22;4990686;28;20057;-83
2021/10/28 01:51:53;;;;;;;9.40;6.68;;;;;;;12.42;68.32;100254.84;4992414;28;20054;-83
2021/10/28 01:54:24;;;;;;;13.30;6.97;;;;;;;12.43;68.28;100255.69;5007354;28;20081;-83
2021/10/28 01:57:01;;;;;;;9.27;6.75;;;;;;;12.41;68.57;100257.56;4991104;28;20116;-83
2021/10/28 01:59:28;;;;;;;;;;;;;;;12.42;68.72;100252.22;4992306;28;20058;-84
2021/10/28 02:01:54;;;;;;;9.95;7.30;;;;;;;12.45;67.86;100257.31;5007340;28;19925;-83
2021/10/28 02:04:21;;;;;;;10.90;6.65;;;;;;;12.43;67.93;100253.91;4992183;28;20104;-84
2021/10/28 02:06:50;;;;;;;10.45;6.50;;;;;;;12.41;68.08;100252.28;4992196;28;20054;-83
2021/10/28 02:09:17;;;;;;;11.35;7.35;;;;;;;12.37;68.07;100247.19;4990749;28;20058;-84
2021/10/28 02:11:44;;;;;;;8.98;6.50;;;;;;;12.37;68.07;100244.53;5006969;28;20396;-83
2021/10/28 02:14:10;;;;;;;9.63;6.82;;;;;;;12.37;68.24;100241.91;4992241;28;20112;-83
2021/10/28 02:16:37;;;;;;;10.55;7.22;;;;;;;12.36;68.19;100240.22;4992233;28;20116;-83
2021/10/28 02:19:04;;;;;;;10.75;7.05;;;;;;;12.36;68.14;100248.13;4991762;28;20093;-83
2021/10/28 02:21:31;;;;;;;11.20;7.55;;;;;;;12.35;68.05;100238.50;4991971;28;20306;-83
2021/10/28 02:23:58;;;;;;;12.00;7.60;;;;;;;12.34;68.15;100252.63;4991999;28;20499;-84
2021/10/28 02:26:26;;;;;;;14.43;7.25;;;;;;;12.34;68.25;100242.06;4991874;28;20062;-83
2021/10/28 02:28:56;;;;;;;9.40;6.85;;;;;;;12.32;68.53;100245.75;4990292;28;20054;-83
2021/10/28 02:31:24;;;;;;;9.07;6.90;;;;;;;12.33;68.23;100240.38;4991891;28;20046;-83
2021/10/28 02:33:51;;;;;;;10.88;7.40;;;;;;;12.32;68.21;100233.41;4992775;28;20062;-83
2021/10/28 02:36:18;;;;;;;9.77;7.18;;;;;;;12.30;68.24;100237.91;4995999;28;20058;-83
2021/10/28 02:38:45;;;;;;;9.20;7.00;;;;;;;12.30;68.27;100231.78;4995974;28;20050;-83
2021/10/28 02:41:12;;;;;;;11.18;7.57;;;;;;;12.30;68.33;100227.34;4995702;28;20470;-83
2021/10/28 02:43:39;;;;;;;11.40;7.57;;;;;;;12.30;68.19;100234.44;5010868;28;20415;-83
2021/10/28 02:46:06;;;;;;;10.77;7.70;;;;;;;12.28;68.29;100231.00;4995803;28;20145;-83
2021/10/28 02:48:33;;;;;;;9.45;7.15;;;;;;;12.27;68.34;100224.91;4995758;28;20113;-84
2021/10/28 02:51:00;;;;;;;11.43;7.50;;;;;;;12.26;68.28;100223.19;5010508;28;20047;-84
2021/10/28 02:53:26;;;;;;;13.48;7.70;;;;;;;12.25;68.42;100222.34;4995505;28;20060;-84
2021/10/28 02:55:53;;;;;;;10.90;6.82;;;;;;;12.25;68.45;100227.63;4994294;28;20081;-84
2021/10/28 02:58:20;;;;;;;10.60;7.50;;;;;;;12.24;68.47;100223.28;5010391;28;20392;-83
2021/10/28 03:00:49;;;;;;;10.38;7.72;;;;;;;12.24;68.33;100214.50;4994861;28;20511;-84
2021/10/28 03:03:16;;;;;;;9.00;7.28;;;;;;;12.24;68.44;100212.72;4994444;28;20050;-83
2021/10/28 03:05:43;;;;;;;10.77;7.72;;;;;;;12.25;68.49;100210.91;4993860;28;20061;-83
2021/10/28 03:08:09;;;;;;;10.85;8.18;;;;;;;12.25;68.37;100203.00;5009900;28;20073;-83
2021/10/28 03:10:36;;;;;;;11.25;8.85;;;;;;;12.23;68.60;100208.38;4993778;28;20050;-83
2021/10/28 03:13:03;;;;;;;15.05;9.35;;;;;;;12.24;68.45;100206.59;5010218;28;20062;-83
2021/10/28 03:15:35;;;;;;;13.40;8.73;;;;;;;12.22;68.49;100198.75;4995467;28;20054;-83
2021/10/28 03:26:20;;;;;;;10.50;7.55;;;;;;;12.21;68.74;100197.06;4995061;28;20058;-83
2021/10/28 03:28:47;;;;;;;11.80;8.25;;;;;;;12.21;68.61;100188.28;4994737;28;20085;-85
2021/10/28 03:31:13;;;;;;;12.38;7.60;;;;;;;12.20;68.62;100192.72;5009594;28;20104;-83
2021/10/28 03:33:45;;;;;;;10.00;7.90;;;;;;;12.21;68.72;100193.56;4994928;28;20056;-83
2021/10/28 03:36:17;;;;;;;13.43;8.85;;;;;;;12.21;68.66;100191.78;4994966;28;20137;-83
2021/10/28 03:39:07;;;;;;;11.45;8.63;;;;;;;12.21;68.91;100189.13;5009724;28;20471;-84
2021/10/28 03:44:45;;;;;;;11.07;8.23;;;;;;;12.23;68.68;100191.69;4994437;28;20065;-83
2021/10/28 04:17:18;;;;;;;12.68;8.80;;;;;;;12.04;68.60;100166.28;4994044;28;20050;-84
2021/10/28 04:20:17;;;;;;;16.02;9.02;;;;;;;12.03;68.53;100164.59;4993527;28;20530;-83
2021/10/28 04:30:58;;;;;;;12.82;9.20;;;;;;;11.95;68.92;100161.53;4994013;28;20054;-83
2021/10/28 04:33:25;;;;;;;14.45;9.30;;;;;;;11.94;68.78;100158.06;4993657;28;20097;-83
2021/10/28 04:35:52;;;;;;;10.95;8.90;;;;;;;11.93;68.92;100150.25;4993418;28;20066;-83
2021/10/28 04:38:18;;;;;;;13.73;9.40;;;;;;;11.92;68.97;100159.94;4993587;28;20046;-83
2021/10/28 04:40:45;;;;;;;11.63;8.63;;;;;;;11.93;69.02;100152.88;4993342;28;20050;-83
2021/10/28 04:43:12;;;;;;;12.40;8.32;;;;;;;11.91;69.23;100150.31;4992528;28;20570;-83
2021/10/28 04:45:38;;;;;;;16.08;9.73;;;;;;;11.92;69.04;100146.75;5008456;28;20085;-83
2021/10/28 04:48:10;;;;;;;15.38;9.90;;;;;;;11.92;69.43;100149.38;5008160;28;20503;-83
2021/10/28 04:50:37;;;;;;;14.80;9.30;;;;;;;11.91;68.99;100139.78;4993491;28;20058;-83
2021/10/28 04:53:03;;;;;;;11.57;8.88;;;;;;;11.92;68.82;100145.91;4992144;28;20050;-83
2021/10/28 04:55:30;;;;;;;13.88;10.50;;;;;;;11.91;68.91;100145.06;4993380;28;20109;-83
2021/10/28 04:57:56;;;;;;;13.35;9.70;;;;;;;11.91;69.03;100145.06;4992806;28;20054;-83
2021/10/28 05:00:23;;;;;;;16.08;9.30;;;;;;;11.89;68.97;100146.91;5008028;28;20264;-83
2021/10/28 05:02:50;;;;;;;14.48;9.50;;;;;;;11.88;68.93;100137.31;4993151;28;20054;-83
2021/10/28 05:05:17;;;;;;;15.77;9.07;;;;;;;11.86;69.06;100132.09;4993149;28;20137;-83
2021/10/28 05:07:43;;;;;;;11.90;9.10;;;;;;;11.86;69.07;100131.28;4992689;28;20065;-83
2021/10/28 05:10:10;;;;;;;13.85;8.93;;;;;;;11.86;69.38;100139.19;4993502;28;20057;-83
2021/10/28 05:12:36;;;;;;;13.10;9.25;;;;;;;11.85;69.37;100133.06;4994180;28;20050;-82
2021/10/28 05:15:03;;;;;;;12.00;9.13;;;;;;;11.87;69.37;100138.25;5009547;28;20112;-83
2021/10/28 05:17:31;;;;;;;12.82;8.88;;;;;;;11.88;69.54;100141.75;4996404;28;20418;-83
2021/10/28 05:19:57;;;;;;;12.38;8.00;;;;;;;11.88;69.49;100129.38;4996318;28;20586;-83
2021/10/28 05:22:28;;;;;;;17.40;8.77;;;;;;;11.89;69.63;100132.88;5010495;28;20052;-83
2021/10/28 05:24:54;;;;;;;13.82;8.48;;;;;;;11.91;69.32;100126.59;4991338;28;20574;-83
2021/10/28 05:27:21;;;;;;;13.95;8.88;;;;;;;11.92;69.41;100124.81;4991390;28;20053;-84
2021/10/28 05:30:01;;;;;;;12.52;8.88;;;;;;;11.93;69.20;100126.50;4990953;28;20121;-83
2021/10/28 05:32:27;;;;;;;12.05;8.63;;;;;;;11.93;69.29;100126.50;4992131;28;20050;-83
2021/10/28 05:35:03;;;;;;;12.65;8.93;;;;;;;11.92;69.53;100119.53;4998266;28;20100;-83
2021/10/28 05:37:31;;;;;;;12.20;7.90;;;;;;;11.93;69.35;100108.03;4998976;28;20050;-83
2021/10/28 05:40:00;;;;;;;11.13;8.07;;;;;;;11.93;69.36;100116.78;4999249;28;20050;-83
2021/10/28 05:42:28;;;;;;;12.77;9.02;;;;;;;11.93;69.19;100113.31;5004503;28;20052;-83
2021/10/28 05:44:59;;;;;;;12.43;8.00;;;;;;;11.91;69.46;100117.81;4992450;28;20388;-83
2021/10/28 05:47:26;;;;;;;12.52;7.80;;;;;;;11.93;69.24;100114.16;5008277;28;20057;-83
2021/10/28 05:50:16;;;;;;;11.68;8.23;;;;;;;11.93;69.19;100110.66;5004514;28;20626;-83
2021/10/28 05:52:52;;;;;;;11.45;8.32;;;;;;;11.91;69.56;100112.53;4992892;28;20061;-83
2021/10/28 05:55:23;;;;;;;13.98;8.15;;;;;;;11.91;69.47;100101.97;4993434;28;20065;-83
2021/10/28 05:57:52;;;;;;;10.45;8.00;;;;;;;11.91;69.31;100108.13;4993120;28;20057;-83
2021/10/28 06:00:23;;;;;;;9.57;8.05;;;;;;;11.91;69.70;100113.41;4994197;28;20113;-83
2021/10/28 06:02:50;;;;;;;11.82;8.15;;;;;;;11.93;69.34;100110.66;5007344;28;20501;-82
2021/10/28 06:05:16;;;;;;;15.75;8.48;;;;;;;11.92;69.31;100109.81;4991943;28;20082;-82
2021/10/28 06:07:43;;;;;;;13.20;8.63;;;;;;;11.92;69.39;100116.91;4992202;28;20057;-83
2021/10/28 06:10:12;;;;;;;12.65;8.00;;;;;;;11.94;69.53;100117.66;5006721;28;20069;-83
2021/10/28 06:12:43;;;;;;;12.38;7.93;;;;;;;11.94;69.28;100113.22;4992294;28;20046;-83
2021/10/28 06:15:14;;;;;;;13.10;8.68;;;;;;;11.94;69.41;100115.88;4993566;28;20058;-83
2021/10/28 06:17:51;;;;;;;14.07;8.50;;;;;;;11.94;69.16;100107.94;4995451;28;20054;-83
2021/10/28 06:20:19;;;;;;;17.13;8.52;;;;;;;11.96;69.35;100115.78;4992236;28;20074;-83
2021/10/28 06:22:47;;;;;;;12.43;8.48;;;;;;;11.96;69.31;100106.06;4990493;28;20050;-84
2021/10/28 06:25:14;;;;;;;12.20;8.23;;;;;;;11.97;69.55;100110.41;4990961;28;20093;-83
2021/10/28 06:27:41;;;;;;;10.60;8.07;;;;;;;11.98;69.28;100109.47;4991100;28;20054;-83
2021/10/28 06:30:08;;;;;;;11.02;8.10;;;;;;;11.99;69.19;100097.97;4998330;28;20054;-83
2021/10/28 06:32:48;;;;;;;12.95;7.90;;;;;;;11.99;69.41;100087.44;4995620;28;20130;-83
2021/10/28 06:35:26;;;;;;;10.93;7.25;;;;;;;12.04;69.15;100096.88;4997335;28;20073;-83
2021/10/28 06:37:54;;;;;;;12.93;8.15;;;;;;;12.04;69.15;100092.41;4998789;28;20061;-83
2021/10/28 06:40:25;;;;;;;13.27;7.65;;;;;;;12.04;69.38;100081.88;4997148;28;20060;-82
2021/10/28 06:42:52;;;;;;;13.75;7.85;;;;;;;12.07;69.05;100088.81;4991876;28;20050;-82
2021/10/28 06:45:20;;;;;;;12.38;8.05;;;;;;;12.10;69.16;100096.53;4991936;28;20101;-83
2021/10/28 06:47:47;;;;;;;11.65;8.00;;;;;;;12.11;68.92;100092.94;4991896;28;20057;-82
2021/10/28 06:50:16;;;;;;;11.25;8.73;;;;;;;12.12;69.12;100090.22;4991531;28;20062;-83
2021/10/28 06:55:33;;;;;;;12.00;8.38;;;;;;;12.15;69.07;100088.34;4992017;28;20428;-83
2021/10/28 07:03:32;;;;;;;10.65;8.18;;;;;;;12.22;69.01;100087.91;4992315;28;20058;-83
2021/10/28 07:06:17;;;;;;;11.00;8.55;;;;;;;12.24;68.96;100087.81;4992039;28;20113;-83
2021/10/28 07:08:47;;;;;;;9.68;8.02;;;;;;;12.27;68.86;100087.66;5007267;28;20133;-83
2021/10/28 07:11:37;;;;;;;12.43;8.15;;;;;;;12.29;69.15;100098.13;4980279;22;20407;-81
2021/10/28 07:14:07;;;;;;;11.57;7.72;;;;;;;12.33;68.91;100094.31;4950848;29;20135;-82
2021/10/28 07:17:06;;;;;;;10.98;7.95;;;;;;;12.31;69.25;100099.72;4950998;29;20059;-82
2021/10/28 07:25:18;;;;;;;14.40;8.10;;;;;;;12.41;69.09;100096.53;4955377;28;20081;-82
2021/10/28 08:14:16;;;;;;;7.80;5.82;;;;;;;13.18;68.15;100069.00;5013839;28;20414;-82
2021/10/28 08:20:00;;;;;;;8.20;6.18;;;;;;;13.25;67.90;100067.66;5013583;28;20056;-82
2021/10/28 08:22:40;;;;;;;7.97;5.68;;;;;;;13.26;67.66;100059.66;5013719;28;20046;-82
2021/10/28 08:30:43;;;;;;;8.40;5.80;;;;;;;13.38;67.76;100058.00;4953950;29;20048;-82
2021/10/28 08:33:12;;;;;;;9.35;6.05;;;;;;;13.41;67.66;100057.81;4952541;29;20502;-82
2021/10/28 08:36:29;;;;;;;9.30;5.97;;;;;;;13.41;67.83;100060.47;4953136;28;20109;-82
2021/10/28 08:38:56;;;;;;;7.72;6.07;;;;;;;13.52;67.53;100058.94;4952919;29;20146;-82
2021/10/28 08:41:24;;;;;;;9.25;6.10;;;;;;;13.54;67.49;100057.91;4952837;29;20090;-82
2021/10/28 08:43:57;;;;;;;10.23;6.78;;;;;;;13.55;67.12;100050.81;4953206;29;20059;-82
2021/10/28 08:46:26;;;;;;;7.60;5.97;;;;;;;13.60;67.21;100055.81;4954033;28;20047;-82
2021/10/28 08:48:57;;;;;;;8.02;6.28;;;;;;;13.64;67.40;100054.69;4952741;29;20063;-82
2021/10/28 08:51:38;;;;;;;7.70;6.40;;;;;;;13.67;67.15;100054.47;4952603;28;20517;-82
2021/10/28 09:24:25;;;;;;;9.98;6.35;;;;;;;14.17;66.14;100028.22;4953355;28;20091;-82
2021/10/28 09:27:41;;;;;;;11.38;7.43;;;;;;;14.22;66.06;100014.69;4952523;29;20404;-82
2021/10/28 09:30:28;;;;;;;7.88;6.22;;;;;;;14.26;65.55;100023.25;4948588;28;20123;-82
2021/10/28 09:33:33;;;;;;;7.28;6.40;;;;;;;14.33;65.11;100035.13;4952065;29;20290;-82
2021/10/28 09:36:16;;;;;;;11.60;6.70;;;;;;;14.41;65.90;100021.34;4953701;28;20521;-82
2021/10/28 09:50:38;;;;;;;9.25;7.15;;;;;;;14.65;65.18;100018.78;4952953;28;20062;-82
2021/10/28 09:53:27;;;;;;;14.55;7.40;;;;;;;14.70;65.18;100007.88;4951851;28;20089;-82
2021/10/28 09:58:50;;;;;;;8.55;6.47;;;;;;;14.83;64.88;100010.53;4952660;29;20519;-82
2021/10/28 10:01:34;;;;;;;8.35;6.60;;;;;;;14.83;63.76;100008.75;4951801;28;20112;-82
2021/10/28 10:04:04;;;;;;;8.15;6.05;;;;;;;14.93;64.38;100013.38;4952742;29;20097;-82
2021/10/28 10:06:40;;;;;;;8.43;6.57;;;;;;;14.99;64.65;100007.63;4951762;28;20435;-82
2021/10/28 10:09:09;;;;;;;10.60;7.43;;;;;;;15.07;64.55;100009.75;4951768;28;20411;-82
2021/10/28 10:11:36;;;;;;;9.07;6.47;;;;;;;15.16;64.52;100014.38;4951562;29;20134;-82
2021/10/28 10:14:02;;;;;;;8.35;6.13;;;;;;;15.25;64.83;100012.84;4951525;28;20138;-82
2021/10/28 10:16:31;;;;;;;8.65;6.65;;;;;;;15.33;64.32;100007.84;4951447;29;20097;-82
2021/10/28 10:19:01;;;;;;;10.38;7.32;;;;;;;15.42;63.81;100005.47;4951508;28;20056;-82
2021/10/28 10:21:38;;;;;;;8.48;6.50;;;;;;;15.51;63.58;100007.44;4951446;28;20130;-82
2021/10/28 10:24:18;;;;;;;9.63;6.28;;;;;;;15.62;63.53;100006.66;4951402;28;20082;-82
2021/10/28 11:06:18;;;;;;;5.72;5.03;;;;;;;19.46;57.90;99962.16;4955365;29;20090;-83
2021/10/28 11:30:10;;;;;;;6.25;4.05;;;;;;;23.00;55.11;99936.56;4955259;29;20058;-83
2021/10/28 12:15:24;;;;;;;3.35;2.45;;;;;;;29.97;36.94;99851.44;4954361;29;20146;-83
2021/10/28 12:24:32;;;;;;;3.97;2.05;;;;;;;30.09;38.10;99832.59;4954144;29;20044;-84
2021/10/28 12:45:17;;;;;;;3.35;2.70;;;;;;;27.37;36.18;99816.06;4954228;29;20483;-84
2021/10/28 12:57:10;;;;;;;5.68;2.70;;;;;;;24.68;38.36;99787.31;4953813;29;20069;-83
2021/10/28 13:55:59;;;;;;;2.50;2.28;;;;;;;21.94;44.62;99695.53;4952840;29;20062;-83
2021/10/28 15:34:43;;;;;;;1.27;1.08;;;;;;;21.06;39.97;99607.34;4955272;29;20552;-83
2021/10/28 15:37:56;;;;;;;1.75;1.10;;;;;;;20.85;40.03;99599.66;4953998;29;20045;-83
2021/10/28 15:40:26;;;;;;;1.90;0.90;;;;;;;20.64;40.38;99600.84;4953842;28;20055;-83
2021/10/28 15:43:19;;;;;;;3.47;0.90;;;;;;;20.48;40.53;99601.59;4953335;29;20462;-83
2021/10/28 16:24:11;;;;;;;1.27;1.02;;;;;;;18.60;43.49;99578.69;4954179;29;20059;-82
2021/10/28 16:26:38;;;;;;;1.50;1.20;;;;;;;18.54;43.53;99583.75;4952900;29;20059;-82
2021/10/28 16:29:12;;;;;;;2.72;1.10;;;;;;;18.41;43.75;99586.69;4954072;29;20055;-81
2021/10/28 16:31:42;;;;;;;3.25;1.40;;;;;;;18.36;43.84;99587.16;4953036;29;20061;-81
2021/10/28 16:34:16;;;;;;;3.55;1.40;;;;;;;18.25;44.25;99597.94;4954028;28;20047;-81
2021/10/28 16:36:47;;;;;;;3.03;1.50;;;;;;;18.20;43.81;99583.22;4953235;29;20081;-82
2021/10/28 16:39:18;;;;;;;1.73;1.40;;;;;;;18.14;44.21;99575.81;4933011;29;20167;-82
2021/10/28 16:41:58;;;;;;;2.35;1.20;;;;;;;18.03;44.54;99573.25;4933107;29;20071;-81
2021/10/28 16:44:26;;;;;;;3.17;1.40;;;;;;;18.02;44.24;99577.72;4932938;29;20500;-82
2021/10/28 16:46:53;;;;;;;2.05;1.20;;;;;;;17.97;44.17;99582.63;4932718;29;20435;-81
2021/10/28 16:49:22;;;;;;;1.45;1.20;;;;;;;17.91;44.59;99576.03;4932748;29;20083;-82
2021/10/28 16:51:49;;;;;;;2.00;1.42;;;;;;;17.87;44.56;99573.81;4932580;29;20066;-81
2021/10/28 16:54:26;;;;;;;4.38;1.63;;;;;;;17.78;44.90;99578.13;4932051;29;20056;-82
2021/10/28 16:56:53;;;;;;;2.40;1.30;;;;;;;17.76;44.61;99582.78;4932573;29;20055;-81
2021/10/28 16:59:36;;;;;;;1.60;1.40;;;;;;;17.65;44.81;99579.25;4916929;29;20135;-81
2021/10/28 17:02:03;;;;;;;2.17;1.45;;;;;;;17.66;44.79;99572.09;4932576;29;20488;-81
2021/10/28 17:04:30;;;;;;;3.65;1.88;;;;;;;17.61;45.14;99569.88;4932615;29;20511;-82
2021/10/28 17:06:57;;;;;;;1.65;1.55;;;;;;;17.56;45.12;99567.63;4932466;29;20138;-81
2021/10/28 17:09:24;;;;;;;1.83;1.58;;;;;;;17.52;45.23;99560.88;4932309;29;20059;-82
2021/10/28 17:11:51;;;;;;;3.05;1.30;;;;;;;17.48;45.43;99567.47;4932485;29;20155;-82
2021/10/28 17:14:31;;;;;;;1.95;1.73;;;;;;;17.40;45.52;99559.31;4932319;29;20106;-81
2021/10/28 17:16:58;;;;;;;4.45;1.75;;;;;;;17.38;45.47;99554.13;4935500;29;20057;-82
2021/10/28 17:19:26;;;;;;;5.07;1.90;;;;;;;17.34;45.38;99566.03;4953201;28;20062;-81
2021/10/28 17:21:54;;;;;;;2.80;2.22;;;;;;;17.28;45.44;99562.13;4952516;29;20504;-81
2021/10/28 17:24:32;;;;;;;2.88;2.03;;;;;;;17.26;45.70;99561.38;4952054;28;20052;-82
2021/10/28 17:27:18;;;;;;;2.10;1.85;;;;;;;17.21;45.82;99555.66;4952267;29;20050;-81
2021/10/28 17:29:45;;;;;;;4.03;2.13;;;;;;;17.17;45.65;99554.22;4952087;29;20145;-82
2021/10/28 17:32:14;;;;;;;2.50;2.03;;;;;;;17.13;45.84;99552.81;4952461;29;20067;-82
2021/10/28 17:34:45;;;;;;;3.40;2.45;;;;;;;17.09;46.06;99556.72;4951689;28;20057;-81
2021/10/28 17:37:23;;;;;;;2.90;2.58;;;;;;;17.04;46.29;99559.75;4952195;29;20491;-81
2021/10/28 17:39:50;;;;;;;3.92;2.60;;;;;;;17.02;46.08;99556.38;4952008;29;20055;-82
2021/10/28 17:42:18;;;;;;;2.75;2.30;;;;;;;16.99;46.22;99554.84;4953156;29;20089;-82
2021/10/28 17:44:58;;;;;;;2.88;2.45;;;;;;;16.92;46.41;99564.31;4951877;29;20523;-81
2021/10/28 17:47:26;;;;;;;3.38;2.72;;;;;;;16.93;46.25;99558.03;4951931;28;20142;-82
2021/10/28 17:49:53;;;;;;;3.25;2.67;;;;;;;16.90;46.48;99566.28;4953187;28;20055;-82
2021/10/28 17:52:43;;;;;;;4.45;3.10;;;;;;;16.83;46.72;99563.31;5017359;28;20374;-82
2021/10/28 17:55:10;;;;;;;6.32;2.72;;;;;;;16.84;46.67;99561.47;5015584;28;20057;-81
2021/10/28 17:57:38;;;;;;;7.00;3.30;;;;;;;16.79;46.68;99561.91;5015594;28;20053;-81
2021/10/28 18:00:06;;;;;;;3.00;2.58;;;;;;;16.75;46.73;99561.31;5015143;28;20049;-82
2021/10/28 18:02:55;;;;;;;3.97;2.65;;;;;;;16.66;47.01;99556.78;5015127;28;20064;-82
2021/10/28 18:05:39;;;;;;;4.63;3.42;;;;;;;16.67;46.84;99556.66;5017091;28;20046;-81
2021/10/28 18:08:08;;;;;;;4.18;2.80;;;;;;;16.63;47.12;99552.56;5015248;28;20127;-82
2021/10/28 18:10:35;;;;;;;4.00;2.78;;;;;;;16.61;47.05;99556.34;4996473;28;20059;-82
2021/10/28 18:13:04;;;;;;;4.20;2.83;;;;;;;16.58;47.35;99561.91;4951768;29;20571;-81
2021/10/28 18:15:40;;;;;;;3.75;2.97;;;;;;;16.54;47.30;99564.84;4951525;29;20062;-80
2021/10/28 18:18:14;;;;;;;4.32;2.97;;;;;;;16.47;47.58;99558.38;4951691;29;20057;-80
2021/10/28 18:20:56;;;;;;;3.78;3.10;;;;;;;16.46;47.43;99548.72;4951754;28;20130;-81
2021/10/28 18:23:32;;;;;;;6.05;3.45;;;;;;;16.42;47.66;99560.59;4951815;28;20415;-81
2021/10/28 18:25:59;;;;;;;5.32;3.28;;;;;;;16.37;47.67;99547.69;4952542;29;20066;-81
2021/10/28 18:28:32;;;;;;;4.00;3.17;;;;;;;16.30;48.10;99554.50;4951252;29;20047;-81
2021/10/28 18:30:59;;;;;;;5.18;3.60;;;;;;;16.27;47.90;99557.41;4951693;29;20137;-81
2021/10/28 18:33:26;;;;;;;5.32;3.92;;;;;;;16.22;47.90;99549.81;4951372;29;20109;-80
2021/10/28 18:35:55;;;;;;;5.07;3.70;;;;;;;16.14;48.28;99558.44;4951275;29;20051;-80
2021/10/28 18:38:22;;;;;;;5.82;3.55;;;;;;;16.11;48.19;99550.72;4951408;28;20479;-80
2021/10/28 18:40:55;;;;;;;6.50;3.90;;;;;;;16.05;48.28;99553.03;4952081;29;20056;-81
2021/10/28 18:43:27;;;;;;;6.13;3.88;;;;;;;15.97;48.97;99557.22;4951425;29;20484;-80
2021/10/28 18:45:55;;;;;;;6.00;3.88;;;;;;;15.93;48.63;99562.84;4952247;29;20047;-80
2021/10/28 18:48:25;;;;;;;5.35;4.25;;;;;;;15.85;49.12;99558.19;4951038;29;20606;-80
2021/10/28 18:50:53;;;;;;;5.22;4.00;;;;;;;15.82;48.97;99550.47;4951037;29;20138;-80
2021/10/28 18:53:23;;;;;;;6.28;4.20;;;;;;;15.75;49.34;99550.97;4951068;29;20138;-80
2021/10/28 18:55:50;;;;;;;5.20;4.22;;;;;;;15.72;49.18;99553.88;4950934;29;20047;-80
2021/10/28 18:58:19;;;;;;;8.20;4.68;;;;;;;15.66;49.93;99546.41;4951806;29;20051;-81
2021/10/28 19:00:49;;;;;;;5.75;4.78;;;;;;;15.62;49.73;99547.63;4950858;29;20052;-80
2021/10/28 19:03:19;;;;;;;6.88;4.88;;;;;;;15.57;50.06;99550.69;4950964;29;20062;-80
2021/10/28 19:05:45;;;;;;;5.00;4.47;;;;;;;15.53;49.91;99546.59;4951197;29;20082;-80
2021/10/28 19:08:15;;;;;;;8.02;4.97;;;;;;;15.46;50.44;99556.84;4950774;29;20146;-80
2021/10/28 19:10:42;;;;;;;5.15;4.53;;;;;;;15.43;50.34;99541.19;4951924;29;20059;-80
2021/10/28 19:13:11;;;;;;;9.00;5.32;;;;;;;15.37;50.76;99549.63;4950861;29;20051;-80
2021/10/28 19:15:38;;;;;;;7.20;4.88;;;;;;;15.35;50.40;99538.28;4952255;28;20051;-80
2021/10/28 19:18:06;;;;;;;7.88;5.40;;;;;;;15.31;50.41;99534.22;4953895;29;20055;-80
2021/10/28 19:20:35;;;;;;;6.80;5.22;;;;;;;15.28;50.72;99534.47;4954425;29;20225;-80
2021/10/28 19:23:05;;;;;;;6.53;4.80;;;;;;;15.23;50.96;99540.13;4954320;28;20079;-80
2021/10/28 19:25:33;;;;;;;7.43;5.80;;;;;;;15.20;51.06;99550.97;4954155;29;20047;-80
2021/10/28 19:28:02;;;;;;;6.22;5.28;;;;;;;15.15;51.25;99547.84;4954175;28;20484;-81
2021/10/28 19:30:33;;;;;;;7.57;5.97;;;;;;;15.11;51.24;99544.63;4954192;29;20077;-80
2021/10/28 19:33:22;;;;;;;8.68;5.70;;;;;;;15.02;51.97;99548.00;4954164;29;20059;-80
2021/10/28 19:35:54;;;;;;;7.47;5.50;;;;;;;15.01;51.53;99535.69;4953842;29;20139;-81
2021/10/28 19:41:35;;;;;;;7.82;6.05;;;;;;;14.92;51.48;99542.59;4955128;29;20051;-80
2021/10/28 19:47:07;;;;;;;9.75;6.97;;;;;;;14.82;51.68;99534.50;4954934;29;20059;-80
2021/10/28 19:49:34;;;;;;;10.15;6.60;;;;;;;14.79;51.78;99535.59;4953911;29;20051;-80
2021/10/28 19:52:02;;;;;;;7.72;6.43;;;;;;;14.74;51.93;99529.78;4955159;29;20139;-81
2021/10/28 19:54:43;;;;;;;10.15;6.88;;;;;;;14.67;53.19;99525.91;4956272;29;20120;-82
2021/10/28 19:57:19;;;;;;;10.15;7.72;;;;;;;14.66;52.73;99530.38;4953542;29;20059;-80
2021/10/28 19:59:51;;;;;;;7.85;6.70;;;;;;;14.62;52.32;99534.25;4953719;29;20055;-80
2021/10/28 20:02:28;;;;;;;8.87;6.33;;;;;;;14.59;52.53;99531.81;4953845;29;20482;-80
2021/10/28 20:21:33;;;;;;;10.15;8.20;;;;;;;14.28;53.09;99536.84;4954996;29;20074;-80
2021/10/28 20:24:00;;;;;;;10.68;7.88;;;;;;;14.23;53.09;99531.88;4954248;29;20138;-80
2021/10/28 20:26:34;;;;;;;10.57;7.70;;;;;;;14.15;54.15;99524.53;4952817;28;20051;-80
2021/10/28 20:29:02;;;;;;;11.85;8.52;;;;;;;14.14;53.32;99530.78;4951989;28;20063;-80
2021/10/28 20:31:29;;;;;;;13.80;8.35;;;;;;;14.10;53.51;99521.41;4953438;29;20490;-80